sensor_id;sensor_type;location;lat;lon;timestamp;P1;durP1;ratioP1;P2;durP2;ratioP2
1977;SDS011;989;53.016;8.346;2023-07-20T00:02:00;3.67;;;3.00;;
1977;SDS011;989;53.016;8.346;2023-07-20T00:04:27;7.53;;;3.57;;
1977;SDS011;989;53.016;8.346;2023-07-20T00:06:53;16.03;;;4.43;;
1977;SDS011;989;53.016;8.346;2023-07-20T00:09:19;4.87;;;3.77;;
1977;SDS011;989;53.016;8.346;2023-07-20T00:11:50;3.97;;;3.67;;
1977;SDS011;989;53.016;8.346;2023-07-20T00:14:18;7.10;;;3.43;;
1977;SDS011;989;53.016;8.346;2023-07-20T00:16:45;4.87;;;3.67;;
1977;SDS011;989;53.016;8.346;2023-07-20T00:19:11;6.83;;;3.67;;
1977;SDS011;989;53.016;8.346;2023-07-20T00:21:38;7.80;;;4.03;;
1977;SDS011;989;53.016;8.346;2023-07-20T00:24:07;4.33;;;3.00;;
1977;SDS011;989;53.016;8.346;2023-07-20T00:26:33;4.57;;;4.17;;
1977;SDS011;989;53.016;8.346;2023-07-20T00:28:59;2.80;;;2.37;;
1977;SDS011;989;53.016;8.346;2023-07-20T00:31:26;5.70;;;3.70;;
1977;SDS011;989;53.016;8.346;2023-07-20T00:33:52;5.60;;;2.70;;
1977;SDS011;989;53.016;8.346;2023-07-20T00:36:18;3.77;;;3.00;;
1977;SDS011;989;53.016;8.346;2023-07-20T00:38:44;5.03;;;3.90;;
1977;SDS011;989;53.016;8.346;2023-07-20T00:41:10;3.00;;;2.53;;
1977;SDS011;989;53.016;8.346;2023-07-20T00:43:36;3.80;;;2.73;;
1977;SDS011;989;53.016;8.346;2023-07-20T00:46:02;4.00;;;2.70;;
1977;SDS011;989;53.016;8.346;2023-07-20T00:48:29;5.03;;;3.00;;
1977;SDS011;989;53.016;8.346;2023-07-20T00:50:56;3.90;;;2.93;;
1977;SDS011;989;53.016;8.346;2023-07-20T00:53:23;3.67;;;2.90;;
1977;SDS011;989;53.016;8.346;2023-07-20T00:55:49;4.30;;;3.17;;
1977;SDS011;989;53.016;8.346;2023-07-20T00:58:15;3.13;;;2.60;;
1977;SDS011;989;53.016;8.346;2023-07-20T01:00:42;3.50;;;3.20;;
1977;SDS011;989;53.016;8.346;2023-07-20T01:03:08;3.27;;;2.97;;
1977;SDS011;989;53.016;8.346;2023-07-20T01:05:36;7.70;;;3.00;;
1977;SDS011;989;53.016;8.346;2023-07-20T01:08:17;3.90;;;3.00;;
1977;SDS011;989;53.016;8.346;2023-07-20T01:11:09;3.53;;;2.73;;
1977;SDS011;989;53.016;8.346;2023-07-20T01:13:42;3.83;;;2.43;;
1977;SDS011;989;53.016;8.346;2023-07-20T01:16:09;4.40;;;2.80;;
1977;SDS011;989;53.016;8.346;2023-07-20T01:18:35;2.67;;;2.13;;
1977;SDS011;989;53.016;8.346;2023-07-20T01:21:06;2.87;;;2.57;;
1977;SDS011;989;53.016;8.346;2023-07-20T01:29:27;2.60;;;2.40;;
1977;SDS011;989;53.016;8.346;2023-07-20T01:32:08;4.03;;;2.43;;
1977;SDS011;989;53.016;8.346;2023-07-20T01:34:35;4.60;;;3.27;;
1977;SDS011;989;53.016;8.346;2023-07-20T01:37:02;4.47;;;3.53;;
1977;SDS011;989;53.016;8.346;2023-07-20T01:39:28;5.17;;;2.93;;
1977;SDS011;989;53.016;8.346;2023-07-20T01:41:55;3.67;;;3.27;;
1977;SDS011;989;53.016;8.346;2023-07-20T01:44:21;4.00;;;3.60;;
1977;SDS011;989;53.016;8.346;2023-07-20T01:46:47;3.67;;;3.30;;
1977;SDS011;989;53.016;8.346;2023-07-20T01:49:13;3.77;;;3.37;;
1977;SDS011;989;53.016;8.346;2023-07-20T01:51:40;4.03;;;3.37;;
1977;SDS011;989;53.016;8.346;2023-07-20T01:54:06;6.83;;;3.70;;
1977;SDS011;989;53.016;8.346;2023-07-20T01:56:32;4.37;;;3.30;;
1977;SDS011;989;53.016;8.346;2023-07-20T01:58:58;4.13;;;3.50;;
1977;SDS011;989;53.016;8.346;2023-07-20T02:01:24;4.40;;;3.40;;
1977;SDS011;989;53.016;8.346;2023-07-20T02:03:53;7.80;;;3.20;;
1977;SDS011;989;53.016;8.346;2023-07-20T02:06:19;4.67;;;3.63;;
1977;SDS011;989;53.016;8.346;2023-07-20T02:08:46;5.27;;;3.67;;
1977;SDS011;989;53.016;8.346;2023-07-20T02:11:12;6.83;;;3.73;;
1977;SDS011;989;53.016;8.346;2023-07-20T02:13:38;5.80;;;3.83;;
1977;SDS011;989;53.016;8.346;2023-07-20T02:16:04;5.43;;;4.60;;
1977;SDS011;989;53.016;8.346;2023-07-20T02:18:30;6.80;;;3.97;;
1977;SDS011;989;53.016;8.346;2023-07-20T02:20:56;7.00;;;4.27;;
1977;SDS011;989;53.016;8.346;2023-07-20T02:23:22;4.77;;;4.37;;
1977;SDS011;989;53.016;8.346;2023-07-20T02:25:48;6.73;;;4.67;;
1977;SDS011;989;53.016;8.346;2023-07-20T02:28:14;6.77;;;4.90;;
1977;SDS011;989;53.016;8.346;2023-07-20T02:30:40;6.73;;;4.33;;
1977;SDS011;989;53.016;8.346;2023-07-20T02:33:07;6.50;;;5.27;;
1977;SDS011;989;53.016;8.346;2023-07-20T02:35:33;6.43;;;5.00;;
1977;SDS011;989;53.016;8.346;2023-07-20T02:37:59;7.37;;;5.90;;
1977;SDS011;989;53.016;8.346;2023-07-20T02:40:25;8.50;;;5.97;;
1977;SDS011;989;53.016;8.346;2023-07-20T02:42:52;8.63;;;5.37;;
1977;SDS011;989;53.016;8.346;2023-07-20T02:45:18;6.30;;;5.70;;
1977;SDS011;989;53.016;8.346;2023-07-20T02:47:44;7.77;;;6.00;;
1977;SDS011;989;53.016;8.346;2023-07-20T02:50:10;12.97;;;5.70;;
1977;SDS011;989;53.016;8.346;2023-07-20T02:52:39;7.83;;;5.70;;
1977;SDS011;989;53.016;8.346;2023-07-20T02:55:05;7.20;;;5.73;;
1977;SDS011;989;53.016;8.346;2023-07-20T02:57:31;8.13;;;6.43;;
1977;SDS011;989;53.016;8.346;2023-07-20T02:59:57;8.90;;;5.90;;
1977;SDS011;989;53.016;8.346;2023-07-20T03:02:23;9.13;;;6.60;;
1977;SDS011;989;53.016;8.346;2023-07-20T03:04:50;8.50;;;6.10;;
1977;SDS011;989;53.016;8.346;2023-07-20T03:07:16;9.67;;;6.73;;
1977;SDS011;989;53.016;8.346;2023-07-20T03:09:42;9.33;;;6.40;;
1977;SDS011;989;53.016;8.346;2023-07-20T03:12:09;8.93;;;7.07;;
1977;SDS011;989;53.016;8.346;2023-07-20T03:14:35;8.97;;;6.40;;
1977;SDS011;989;53.016;8.346;2023-07-20T03:17:01;9.80;;;6.13;;
1977;SDS011;989;53.016;8.346;2023-07-20T03:19:27;7.30;;;6.20;;
1977;SDS011;989;53.016;8.346;2023-07-20T03:21:53;7.10;;;6.03;;
1977;SDS011;989;53.016;8.346;2023-07-20T03:24:19;7.87;;;6.60;;
1977;SDS011;989;53.016;8.346;2023-07-20T03:26:46;9.20;;;6.67;;
1977;SDS011;989;53.016;8.346;2023-07-20T03:29:12;9.13;;;6.50;;
1977;SDS011;989;53.016;8.346;2023-07-20T03:31:38;10.27;;;6.30;;
1977;SDS011;989;53.016;8.346;2023-07-20T03:34:04;8.43;;;6.30;;
1977;SDS011;989;53.016;8.346;2023-07-20T03:36:31;7.97;;;6.00;;
1977;SDS011;989;53.016;8.346;2023-07-20T03:38:57;9.93;;;5.60;;
1977;SDS011;989;53.016;8.346;2023-07-20T03:41:23;7.53;;;6.50;;
1977;SDS011;989;53.016;8.346;2023-07-20T03:43:49;8.53;;;6.13;;
1977;SDS011;989;53.016;8.346;2023-07-20T03:46:15;7.03;;;5.97;;
1977;SDS011;989;53.016;8.346;2023-07-20T03:48:42;6.90;;;5.70;;
1977;SDS011;989;53.016;8.346;2023-07-20T03:51:08;10.90;;;5.73;;
1977;SDS011;989;53.016;8.346;2023-07-20T03:53:34;11.10;;;6.33;;
1977;SDS011;989;53.016;8.346;2023-07-20T03:56:00;9.27;;;5.70;;
1977;SDS011;989;53.016;8.346;2023-07-20T03:58:26;5.77;;;4.77;;
1977;SDS011;989;53.016;8.346;2023-07-20T04:00:52;7.70;;;5.40;;
1977;SDS011;989;53.016;8.346;2023-07-20T04:03:18;8.10;;;5.30;;
1977;SDS011;989;53.016;8.346;2023-07-20T04:05:45;6.63;;;5.10;;
1977;SDS011;989;53.016;8.346;2023-07-20T04:08:11;7.60;;;5.10;;
1977;SDS011;989;53.016;8.346;2023-07-20T04:10:38;6.23;;;5.20;;
1977;SDS011;989;53.016;8.346;2023-07-20T04:13:04;5.40;;;4.60;;
1977;SDS011;989;53.016;8.346;2023-07-20T04:15:31;7.63;;;5.33;;
1977;SDS011;989;53.016;8.346;2023-07-20T04:17:57;5.77;;;4.97;;
1977;SDS011;989;53.016;8.346;2023-07-20T04:20:23;9.80;;;5.20;;
1977;SDS011;989;53.016;8.346;2023-07-20T04:22:49;6.30;;;4.80;;
1977;SDS011;989;53.016;8.346;2023-07-20T04:25:16;6.20;;;5.00;;
1977;SDS011;989;53.016;8.346;2023-07-20T04:27:43;4.97;;;4.43;;
1977;SDS011;989;53.016;8.346;2023-07-20T04:30:09;6.67;;;5.20;;
1977;SDS011;989;53.016;8.346;2023-07-20T04:32:36;7.10;;;5.57;;
1977;SDS011;989;53.016;8.346;2023-07-20T04:35:06;6.53;;;5.67;;
1977;SDS011;989;53.016;8.346;2023-07-20T04:37:33;8.00;;;6.10;;
1977;SDS011;989;53.016;8.346;2023-07-20T04:39:59;9.33;;;5.73;;
1977;SDS011;989;53.016;8.346;2023-07-20T04:42:25;7.93;;;6.17;;
1977;SDS011;989;53.016;8.346;2023-07-20T04:44:51;8.50;;;5.07;;
1977;SDS011;989;53.016;8.346;2023-07-20T04:47:18;8.07;;;6.80;;
1977;SDS011;989;53.016;8.346;2023-07-20T04:49:44;9.57;;;6.10;;
1977;SDS011;989;53.016;8.346;2023-07-20T04:52:10;7.73;;;5.30;;
1977;SDS011;989;53.016;8.346;2023-07-20T04:54:36;10.90;;;5.97;;
1977;SDS011;989;53.016;8.346;2023-07-20T04:57:02;7.40;;;5.73;;
1977;SDS011;989;53.016;8.346;2023-07-20T04:59:30;6.00;;;5.10;;
1977;SDS011;989;53.016;8.346;2023-07-20T05:01:58;7.60;;;4.90;;
1977;SDS011;989;53.016;8.346;2023-07-20T05:04:24;5.90;;;5.30;;
1977;SDS011;989;53.016;8.346;2023-07-20T05:06:50;5.50;;;4.73;;
1977;SDS011;989;53.016;8.346;2023-07-20T05:09:16;7.87;;;4.80;;
1977;SDS011;989;53.016;8.346;2023-07-20T05:11:42;6.83;;;4.33;;
1977;SDS011;989;53.016;8.346;2023-07-20T05:14:10;5.60;;;4.40;;
1977;SDS011;989;53.016;8.346;2023-07-20T05:16:36;5.50;;;4.13;;
1977;SDS011;989;53.016;8.346;2023-07-20T05:19:02;4.20;;;3.80;;
1977;SDS011;989;53.016;8.346;2023-07-20T05:21:28;5.23;;;4.37;;
1977;SDS011;989;53.016;8.346;2023-07-20T05:23:54;4.50;;;3.83;;
1977;SDS011;989;53.016;8.346;2023-07-20T05:26:20;4.70;;;3.80;;
1977;SDS011;989;53.016;8.346;2023-07-20T05:28:47;5.27;;;3.90;;
1977;SDS011;989;53.016;8.346;2023-07-20T05:31:13;5.80;;;3.43;;
1977;SDS011;989;53.016;8.346;2023-07-20T05:33:39;3.90;;;3.30;;
1977;SDS011;989;53.016;8.346;2023-07-20T05:36:05;3.43;;;3.13;;
1977;SDS011;989;53.016;8.346;2023-07-20T05:38:31;4.70;;;3.30;;
1977;SDS011;989;53.016;8.346;2023-07-20T05:40:59;4.03;;;3.63;;
1977;SDS011;989;53.016;8.346;2023-07-20T05:43:28;4.87;;;3.40;;
1977;SDS011;989;53.016;8.346;2023-07-20T05:45:56;5.40;;;3.03;;
1977;SDS011;989;53.016;8.346;2023-07-20T05:48:23;3.93;;;3.00;;
1977;SDS011;989;53.016;8.346;2023-07-20T05:50:49;10.90;;;4.37;;
1977;SDS011;989;53.016;8.346;2023-07-20T05:53:16;4.37;;;3.33;;
1977;SDS011;989;53.016;8.346;2023-07-20T05:55:42;3.33;;;2.90;;
1977;SDS011;989;53.016;8.346;2023-07-20T05:58:08;3.40;;;3.10;;
1977;SDS011;989;53.016;8.346;2023-07-20T06:00:34;3.93;;;2.47;;
1977;SDS011;989;53.016;8.346;2023-07-20T06:03:00;5.07;;;2.43;;
1977;SDS011;989;53.016;8.346;2023-07-20T06:05:26;2.60;;;1.90;;
1977;SDS011;989;53.016;8.346;2023-07-20T06:07:52;5.47;;;2.47;;
1977;SDS011;989;53.016;8.346;2023-07-20T06:10:19;5.00;;;2.40;;
1977;SDS011;989;53.016;8.346;2023-07-20T06:12:45;11.10;;;2.40;;
1977;SDS011;989;53.016;8.346;2023-07-20T06:15:28;2.93;;;1.90;;
1977;SDS011;989;53.016;8.346;2023-07-20T06:17:56;5.07;;;2.10;;
1977;SDS011;989;53.016;8.346;2023-07-20T06:20:23;3.37;;;2.80;;
1977;SDS011;989;53.016;8.346;2023-07-20T06:22:49;2.53;;;2.33;;
1977;SDS011;989;53.016;8.346;2023-07-20T06:25:15;5.30;;;4.23;;
1977;SDS011;989;53.016;8.346;2023-07-20T06:27:42;3.30;;;2.43;;
1977;SDS011;989;53.016;8.346;2023-07-20T06:30:09;4.50;;;3.90;;
1977;SDS011;989;53.016;8.346;2023-07-20T06:32:35;6.43;;;4.17;;
1977;SDS011;989;53.016;8.346;2023-07-20T06:35:01;4.10;;;3.23;;
1977;SDS011;989;53.016;8.346;2023-07-20T06:37:28;5.80;;;3.60;;
1977;SDS011;989;53.016;8.346;2023-07-20T06:39:54;6.70;;;3.90;;
1977;SDS011;989;53.016;8.346;2023-07-20T06:42:20;3.90;;;3.60;;
1977;SDS011;989;53.016;8.346;2023-07-20T06:44:46;5.10;;;4.70;;
1977;SDS011;989;53.016;8.346;2023-07-20T06:47:12;4.93;;;3.40;;
1977;SDS011;989;53.016;8.346;2023-07-20T06:49:38;8.33;;;3.27;;
1977;SDS011;989;53.016;8.346;2023-07-20T06:52:04;3.37;;;3.17;;
1977;SDS011;989;53.016;8.346;2023-07-20T06:54:31;3.57;;;3.33;;
1977;SDS011;989;53.016;8.346;2023-07-20T06:56:57;3.33;;;3.03;;
1977;SDS011;989;53.016;8.346;2023-07-20T06:59:23;3.77;;;2.57;;
1977;SDS011;989;53.016;8.346;2023-07-20T07:01:49;4.80;;;2.97;;
1977;SDS011;989;53.016;8.346;2023-07-20T07:04:15;5.70;;;3.17;;
1977;SDS011;989;53.016;8.346;2023-07-20T07:06:41;3.30;;;3.00;;
1977;SDS011;989;53.016;8.346;2023-07-20T07:09:08;3.23;;;2.20;;
1977;SDS011;989;53.016;8.346;2023-07-20T07:11:34;2.70;;;2.50;;
1977;SDS011;989;53.016;8.346;2023-07-20T07:14:00;2.80;;;2.60;;
1977;SDS011;989;53.016;8.346;2023-07-20T07:16:26;4.70;;;3.00;;
1977;SDS011;989;53.016;8.346;2023-07-20T07:18:52;3.40;;;2.87;;
1977;SDS011;989;53.016;8.346;2023-07-20T07:21:18;3.80;;;3.50;;
1977;SDS011;989;53.016;8.346;2023-07-20T07:23:45;6.33;;;3.47;;
1977;SDS011;989;53.016;8.346;2023-07-20T07:26:11;4.30;;;3.90;;
1977;SDS011;989;53.016;8.346;2023-07-20T07:28:37;4.93;;;4.00;;
1977;SDS011;989;53.016;8.346;2023-07-20T07:31:04;5.90;;;4.03;;
1977;SDS011;989;53.016;8.346;2023-07-20T07:33:31;4.80;;;4.50;;
1977;SDS011;989;53.016;8.346;2023-07-20T07:35:57;4.97;;;4.67;;
1977;SDS011;989;53.016;8.346;2023-07-20T07:38:23;5.23;;;3.90;;
1977;SDS011;989;53.016;8.346;2023-07-20T07:40:49;4.80;;;4.40;;
1977;SDS011;989;53.016;8.346;2023-07-20T07:43:15;4.97;;;4.57;;
1977;SDS011;989;53.016;8.346;2023-07-20T07:45:41;5.60;;;5.10;;
1977;SDS011;989;53.016;8.346;2023-07-20T07:48:07;5.00;;;4.60;;
1977;SDS011;989;53.016;8.346;2023-07-20T07:50:36;4.53;;;4.23;;
1977;SDS011;989;53.016;8.346;2023-07-20T07:53:03;8.67;;;4.20;;
1977;SDS011;989;53.016;8.346;2023-07-20T07:55:29;6.33;;;3.53;;
1977;SDS011;989;53.016;8.346;2023-07-20T07:57:55;4.37;;;3.97;;
1977;SDS011;989;53.016;8.346;2023-07-20T08:00:21;4.90;;;4.60;;
1977;SDS011;989;53.016;8.346;2023-07-20T08:02:49;5.30;;;4.90;;
1977;SDS011;989;53.016;8.346;2023-07-20T08:05:15;6.50;;;5.80;;
1977;SDS011;989;53.016;8.346;2023-07-20T08:07:41;6.67;;;6.00;;
1977;SDS011;989;53.016;8.346;2023-07-20T08:10:08;6.23;;;5.77;;
1977;SDS011;989;53.016;8.346;2023-07-20T08:12:34;7.17;;;5.53;;
1977;SDS011;989;53.016;8.346;2023-07-20T08:15:01;7.00;;;6.40;;
1977;SDS011;989;53.016;8.346;2023-07-20T08:17:27;5.60;;;5.20;;
1977;SDS011;989;53.016;8.346;2023-07-20T08:19:53;9.00;;;6.17;;
1977;SDS011;989;53.016;8.346;2023-07-20T08:22:19;8.17;;;5.90;;
1977;SDS011;989;53.016;8.346;2023-07-20T08:24:45;5.90;;;5.50;;
1977;SDS011;989;53.016;8.346;2023-07-20T08:27:11;5.60;;;4.90;;
1977;SDS011;989;53.016;8.346;2023-07-20T08:29:37;5.93;;;5.53;;
1977;SDS011;989;53.016;8.346;2023-07-20T08:32:03;7.03;;;6.47;;
1977;SDS011;989;53.016;8.346;2023-07-20T08:34:31;8.57;;;7.87;;
1977;SDS011;989;53.016;8.346;2023-07-20T08:36:57;7.70;;;6.93;;
1977;SDS011;989;53.016;8.346;2023-07-20T08:39:24;6.80;;;5.80;;
1977;SDS011;989;53.016;8.346;2023-07-20T08:41:50;6.07;;;5.47;;
1977;SDS011;989;53.016;8.346;2023-07-20T08:44:19;6.77;;;6.33;;
1977;SDS011;989;53.016;8.346;2023-07-20T08:46:45;5.70;;;5.30;;
1977;SDS011;989;53.016;8.346;2023-07-20T08:49:11;6.63;;;6.13;;
1977;SDS011;989;53.016;8.346;2023-07-20T08:51:37;6.77;;;6.30;;
1977;SDS011;989;53.016;8.346;2023-07-20T08:54:04;6.60;;;6.10;;
1977;SDS011;989;53.016;8.346;2023-07-20T08:56:32;7.60;;;7.10;;
1977;SDS011;989;53.016;8.346;2023-07-20T08:58:59;7.90;;;7.30;;
1977;SDS011;989;53.016;8.346;2023-07-20T09:01:26;8.80;;;8.30;;
1977;SDS011;989;53.016;8.346;2023-07-20T09:03:53;7.50;;;6.80;;
1977;SDS011;989;53.016;8.346;2023-07-20T09:06:19;9.97;;;9.13;;
1977;SDS011;989;53.016;8.346;2023-07-20T09:08:45;9.10;;;8.50;;
1977;SDS011;989;53.016;8.346;2023-07-20T09:11:12;9.50;;;8.70;;
1977;SDS011;989;53.016;8.346;2023-07-20T09:13:41;8.70;;;8.10;;
1977;SDS011;989;53.016;8.346;2023-07-20T09:16:07;7.33;;;6.77;;
1977;SDS011;989;53.016;8.346;2023-07-20T09:18:33;10.60;;;6.87;;
1977;SDS011;989;53.016;8.346;2023-07-20T09:21:03;5.87;;;5.47;;
1977;SDS011;989;53.016;8.346;2023-07-20T09:23:34;4.90;;;4.60;;
1977;SDS011;989;53.016;8.346;2023-07-20T09:26:13;5.00;;;4.50;;
1977;SDS011;989;53.016;8.346;2023-07-20T09:28:44;5.97;;;4.67;;
1977;SDS011;989;53.016;8.346;2023-07-20T09:31:16;6.00;;;4.40;;
1977;SDS011;989;53.016;8.346;2023-07-20T09:33:46;6.83;;;4.57;;
1977;SDS011;989;53.016;8.346;2023-07-20T09:36:12;4.73;;;4.33;;
1977;SDS011;989;53.016;8.346;2023-07-20T09:38:41;5.00;;;4.60;;
1977;SDS011;989;53.016;8.346;2023-07-20T09:41:12;6.13;;;5.53;;
1977;SDS011;989;53.016;8.346;2023-07-20T09:43:39;5.60;;;5.03;;
1977;SDS011;989;53.016;8.346;2023-07-20T09:46:06;9.27;;;5.50;;
1977;SDS011;989;53.016;8.346;2023-07-20T09:48:32;8.53;;;5.53;;
1977;SDS011;989;53.016;8.346;2023-07-20T09:50:58;5.60;;;5.10;;
1977;SDS011;989;53.016;8.346;2023-07-20T09:53:25;6.13;;;5.10;;
1977;SDS011;989;53.016;8.346;2023-07-20T09:55:52;5.90;;;5.40;;
1977;SDS011;989;53.016;8.346;2023-07-20T09:58:19;5.23;;;4.83;;
1977;SDS011;989;53.016;8.346;2023-07-20T10:00:46;6.83;;;6.13;;
1977;SDS011;989;53.016;8.346;2023-07-20T10:03:29;5.97;;;5.23;;
1977;SDS011;989;53.016;8.346;2023-07-20T10:06:05;7.03;;;5.90;;
1977;SDS011;989;53.016;8.346;2023-07-20T10:08:33;6.67;;;5.07;;
1977;SDS011;989;53.016;8.346;2023-07-20T10:11:04;5.20;;;4.80;;
1977;SDS011;989;53.016;8.346;2023-07-20T10:13:31;5.60;;;4.80;;
1977;SDS011;989;53.016;8.346;2023-07-20T10:15:59;7.13;;;5.53;;
1977;SDS011;989;53.016;8.346;2023-07-20T10:18:29;5.57;;;5.17;;
1977;SDS011;989;53.016;8.346;2023-07-20T10:20:59;5.90;;;5.40;;
1977;SDS011;989;53.016;8.346;2023-07-20T10:23:26;5.77;;;5.27;;
1977;SDS011;989;53.016;8.346;2023-07-20T10:25:55;7.23;;;5.50;;
1977;SDS011;989;53.016;8.346;2023-07-20T10:28:22;5.87;;;4.77;;
1977;SDS011;989;53.016;8.346;2023-07-20T10:30:49;6.47;;;5.90;;
1977;SDS011;989;53.016;8.346;2023-07-20T10:33:16;8.10;;;7.50;;
1977;SDS011;989;53.016;8.346;2023-07-20T10:36:20;8.60;;;8.00;;
1977;SDS011;989;53.016;8.346;2023-07-20T10:43:45;10.27;;;8.20;;
1977;SDS011;989;53.016;8.346;2023-07-20T10:46:12;8.23;;;7.63;;
1977;SDS011;989;53.016;8.346;2023-07-20T10:51:23;7.80;;;7.20;;
1977;SDS011;989;53.016;8.346;2023-07-20T10:53:49;7.73;;;7.13;;
1977;SDS011;989;53.016;8.346;2023-07-20T10:56:22;7.07;;;6.37;;
1977;SDS011;989;53.016;8.346;2023-07-20T10:58:48;9.80;;;6.73;;
1977;SDS011;989;53.016;8.346;2023-07-20T11:01:16;7.13;;;6.50;;
1977;SDS011;989;53.016;8.346;2023-07-20T11:03:42;7.50;;;6.90;;
1977;SDS011;989;53.016;8.346;2023-07-20T11:09:02;7.33;;;6.57;;
1977;SDS011;989;53.016;8.346;2023-07-20T11:11:30;7.40;;;6.80;;
1977;SDS011;989;53.016;8.346;2023-07-20T11:13:58;7.93;;;7.30;;
1977;SDS011;989;53.016;8.346;2023-07-20T11:19:02;8.83;;;8.10;;
1977;SDS011;989;53.016;8.346;2023-07-20T11:21:30;8.50;;;7.90;;
1977;SDS011;989;53.016;8.346;2023-07-20T11:24:05;9.27;;;8.30;;
1977;SDS011;989;53.016;8.346;2023-07-20T11:26:48;9.40;;;8.90;;
1977;SDS011;989;53.016;8.346;2023-07-20T11:29:16;10.33;;;8.07;;
1977;SDS011;989;53.016;8.346;2023-07-20T11:31:42;9.87;;;9.03;;
1977;SDS011;989;53.016;8.346;2023-07-20T11:34:19;9.70;;;9.00;;
1977;SDS011;989;53.016;8.346;2023-07-20T11:36:49;9.33;;;8.43;;
1977;SDS011;989;53.016;8.346;2023-07-20T11:39:17;8.03;;;7.23;;
1977;SDS011;989;53.016;8.346;2023-07-20T11:41:48;8.10;;;7.60;;
1977;SDS011;989;53.016;8.346;2023-07-20T11:44:18;9.57;;;8.67;;
1977;SDS011;989;53.016;8.346;2023-07-20T11:46:59;7.73;;;7.23;;
1977;SDS011;989;53.016;8.346;2023-07-20T11:49:28;10.30;;;9.60;;
1977;SDS011;989;53.016;8.346;2023-07-20T11:51:55;10.50;;;9.57;;
1977;SDS011;989;53.016;8.346;2023-07-20T11:54:22;10.67;;;9.87;;
1977;SDS011;989;53.016;8.346;2023-07-20T11:56:53;12.63;;;11.77;;
1977;SDS011;989;53.016;8.346;2023-07-20T11:59:20;12.00;;;11.30;;
1977;SDS011;989;53.016;8.346;2023-07-20T12:01:46;11.00;;;10.00;;
1977;SDS011;989;53.016;8.346;2023-07-20T12:04:12;10.90;;;10.30;;
1977;SDS011;989;53.016;8.346;2023-07-20T12:06:38;11.97;;;11.27;;
1977;SDS011;989;53.016;8.346;2023-07-20T12:09:04;11.33;;;10.63;;
1977;SDS011;989;53.016;8.346;2023-07-20T12:11:31;11.50;;;10.63;;
1977;SDS011;989;53.016;8.346;2023-07-20T12:13:58;9.87;;;9.27;;
1977;SDS011;989;53.016;8.346;2023-07-20T12:16:26;12.23;;;9.53;;
1977;SDS011;989;53.016;8.346;2023-07-20T12:19:03;10.77;;;10.17;;
1977;SDS011;989;53.016;8.346;2023-07-20T12:21:38;19.87;;;10.67;;
1977;SDS011;989;53.016;8.346;2023-07-20T12:24:06;10.67;;;9.73;;
1977;SDS011;989;53.016;8.346;2023-07-20T12:26:34;9.60;;;8.90;;
1977;SDS011;989;53.016;8.346;2023-07-20T12:29:00;12.70;;;11.90;;
1977;SDS011;989;53.016;8.346;2023-07-20T12:31:28;11.47;;;10.77;;
1977;SDS011;989;53.016;8.346;2023-07-20T12:33:56;12.90;;;12.20;;
1977;SDS011;989;53.016;8.346;2023-07-20T12:36:22;13.17;;;12.37;;
1977;SDS011;989;53.016;8.346;2023-07-20T12:38:49;12.53;;;11.47;;
1977;SDS011;989;53.016;8.346;2023-07-20T12:41:15;11.13;;;10.50;;
1977;SDS011;989;53.016;8.346;2023-07-20T12:43:43;12.33;;;11.43;;
1977;SDS011;989;53.016;8.346;2023-07-20T12:46:10;12.20;;;11.33;;
1977;SDS011;989;53.016;8.346;2023-07-20T12:48:37;10.87;;;10.20;;
1977;SDS011;989;53.016;8.346;2023-07-20T12:51:05;9.10;;;8.40;;
1977;SDS011;989;53.016;8.346;2023-07-20T12:53:31;9.20;;;8.63;;
1977;SDS011;989;53.016;8.346;2023-07-20T12:55:58;9.50;;;8.60;;
1977;SDS011;989;53.016;8.346;2023-07-20T12:58:24;8.70;;;7.90;;
1977;SDS011;989;53.016;8.346;2023-07-20T13:00:51;8.10;;;7.40;;
1977;SDS011;989;53.016;8.346;2023-07-20T13:03:17;8.93;;;8.00;;
1977;SDS011;989;53.016;8.346;2023-07-20T13:05:44;9.77;;;8.80;;
1977;SDS011;989;53.016;8.346;2023-07-20T13:08:10;8.17;;;7.43;;
1977;SDS011;989;53.016;8.346;2023-07-20T13:10:37;8.17;;;7.50;;
1977;SDS011;989;53.016;8.346;2023-07-20T13:13:06;7.67;;;7.17;;
1977;SDS011;989;53.016;8.346;2023-07-20T13:15:40;17.33;;;8.43;;
1977;SDS011;989;53.016;8.346;2023-07-20T13:18:07;8.10;;;7.50;;
1977;SDS011;989;53.016;8.346;2023-07-20T13:20:33;8.40;;;7.80;;
1977;SDS011;989;53.016;8.346;2023-07-20T13:22:59;9.20;;;8.30;;
1977;SDS011;989;53.016;8.346;2023-07-20T13:25:25;8.30;;;7.80;;
1977;SDS011;989;53.016;8.346;2023-07-20T13:27:52;8.37;;;7.67;;
1977;SDS011;989;53.016;8.346;2023-07-20T13:30:18;9.17;;;8.00;;
1977;SDS011;989;53.016;8.346;2023-07-20T13:32:46;10.90;;;8.40;;
1977;SDS011;989;53.016;8.346;2023-07-20T13:35:12;9.30;;;8.53;;
1977;SDS011;989;53.016;8.346;2023-07-20T13:37:39;9.10;;;8.23;;
1977;SDS011;989;53.016;8.346;2023-07-20T13:40:06;9.30;;;8.70;;
1977;SDS011;989;53.016;8.346;2023-07-20T13:42:38;10.23;;;8.40;;
1977;SDS011;989;53.016;8.346;2023-07-20T13:45:05;8.70;;;8.10;;
1977;SDS011;989;53.016;8.346;2023-07-20T13:47:32;9.80;;;9.00;;
1977;SDS011;989;53.016;8.346;2023-07-20T13:49:58;8.90;;;8.30;;
1977;SDS011;989;53.016;8.346;2023-07-20T13:52:24;9.80;;;9.10;;
1977;SDS011;989;53.016;8.346;2023-07-20T13:54:50;9.17;;;8.60;;
1977;SDS011;989;53.016;8.346;2023-07-20T13:57:16;9.63;;;8.93;;
1977;SDS011;989;53.016;8.346;2023-07-20T13:59:43;10.37;;;9.20;;
1977;SDS011;989;53.016;8.346;2023-07-20T14:02:09;9.43;;;8.80;;
1977;SDS011;989;53.016;8.346;2023-07-20T14:04:36;11.13;;;8.70;;
1977;SDS011;989;53.016;8.346;2023-07-20T14:07:02;9.20;;;8.50;;
1977;SDS011;989;53.016;8.346;2023-07-20T14:09:28;9.23;;;8.73;;
1977;SDS011;989;53.016;8.346;2023-07-20T14:11:54;9.43;;;8.80;;
1977;SDS011;989;53.016;8.346;2023-07-20T14:14:20;9.00;;;8.50;;
1977;SDS011;989;53.016;8.346;2023-07-20T14:16:46;8.10;;;7.60;;
1977;SDS011;989;53.016;8.346;2023-07-20T14:19:12;8.97;;;8.37;;
1977;SDS011;989;53.016;8.346;2023-07-20T14:21:38;9.83;;;9.00;;
1977;SDS011;989;53.016;8.346;2023-07-20T14:24:04;10.17;;;9.27;;
1977;SDS011;989;53.016;8.346;2023-07-20T14:26:30;12.00;;;9.40;;
1977;SDS011;989;53.016;8.346;2023-07-20T14:28:56;9.30;;;8.63;;
1977;SDS011;989;53.016;8.346;2023-07-20T14:31:23;10.67;;;9.87;;
1977;SDS011;989;53.016;8.346;2023-07-20T14:33:49;11.53;;;10.93;;
1977;SDS011;989;53.016;8.346;2023-07-20T14:36:15;11.20;;;10.50;;
1977;SDS011;989;53.016;8.346;2023-07-20T14:38:41;10.77;;;10.03;;
1977;SDS011;989;53.016;8.346;2023-07-20T14:41:08;10.43;;;9.83;;
1977;SDS011;989;53.016;8.346;2023-07-20T14:43:34;11.60;;;10.90;;
1977;SDS011;989;53.016;8.346;2023-07-20T14:46:00;10.80;;;10.10;;
1977;SDS011;989;53.016;8.346;2023-07-20T14:48:26;11.27;;;10.57;;
1977;SDS011;989;53.016;8.346;2023-07-20T14:50:52;10.47;;;9.87;;
1977;SDS011;989;53.016;8.346;2023-07-20T14:53:18;12.17;;;11.37;;
1977;SDS011;989;53.016;8.346;2023-07-20T14:55:45;12.17;;;11.37;;
1977;SDS011;989;53.016;8.346;2023-07-20T14:58:11;11.63;;;10.83;;
1977;SDS011;989;53.016;8.346;2023-07-20T15:00:37;14.87;;;10.20;;
1977;SDS011;989;53.016;8.346;2023-07-20T15:03:03;9.70;;;8.80;;
1977;SDS011;989;53.016;8.346;2023-07-20T15:05:30;10.83;;;10.07;;
1977;SDS011;989;53.016;8.346;2023-07-20T15:07:56;11.03;;;9.20;;
1977;SDS011;989;53.016;8.346;2023-07-20T15:10:22;8.90;;;8.30;;
1977;SDS011;989;53.016;8.346;2023-07-20T15:12:48;9.37;;;8.77;;
1977;SDS011;989;53.016;8.346;2023-07-20T15:15:14;9.20;;;8.30;;
1977;SDS011;989;53.016;8.346;2023-07-20T15:17:42;8.77;;;8.10;;
1977;SDS011;989;53.016;8.346;2023-07-20T15:20:10;9.53;;;8.63;;
1977;SDS011;989;53.016;8.346;2023-07-20T15:22:37;10.33;;;9.23;;
1977;SDS011;989;53.016;8.346;2023-07-20T15:25:04;10.40;;;9.73;;
1977;SDS011;989;53.016;8.346;2023-07-20T15:27:31;11.00;;;9.60;;
1977;SDS011;989;53.016;8.346;2023-07-20T15:29:58;11.27;;;10.33;;
1977;SDS011;989;53.016;8.346;2023-07-20T15:32:24;10.97;;;10.07;;
1977;SDS011;989;53.016;8.346;2023-07-20T15:34:50;10.40;;;9.60;;
1977;SDS011;989;53.016;8.346;2023-07-20T15:37:16;10.43;;;9.40;;
1977;SDS011;989;53.016;8.346;2023-07-20T15:39:42;10.43;;;9.57;;
1977;SDS011;989;53.016;8.346;2023-07-20T15:42:08;10.03;;;9.03;;
1977;SDS011;989;53.016;8.346;2023-07-20T15:44:34;10.10;;;9.30;;
1977;SDS011;989;53.016;8.346;2023-07-20T15:47:01;9.63;;;8.83;;